<?xml version="1.0" encoding="utf-8"?>
<gpx xmlns:xsi="http://www.w3.org/2001/XMLSchema-instance" xmlns:xsd="http://www.w3.org/2001/XMLSchema" version="1.1" creator="Shapelink.com" xmlns="http://www.topografix.com/GPX/1/1" xmlns:gpxtpx="http://www.garmin.com/xmlschemas/TrackPointExtension/v1">
  <metadata>
    <name>Løping 6.18 km, 2012-07-24</name>
    <desc></desc>
    <author><name>Mikael Blom</name></author> 
    <time>2012-07-24T18:01:05Z</time>
  </metadata>
  <trk>
    <name>Løping 6.18 km, 2012-07-24</name>
    <trkseg>
      <trkpt lat="59.9553468" lon="17.7150244">
        <ele>38.5901</ele>
        <time>2012-07-24T18:01:05Z</time>
      </trkpt>
      <trkpt lat="59.9553292" lon="17.7149276">
        <ele>38.1094</ele>
        <time>2012-07-24T18:01:09Z</time>
      </trkpt>
      <trkpt lat="59.9552971" lon="17.7147804">
        <ele>37.1481</ele>
        <time>2012-07-24T18:01:13Z</time>
      </trkpt>
      <trkpt lat="59.9552665" lon="17.7146369">
        <ele>36.6675</ele>
        <time>2012-07-24T18:01:18Z</time>
      </trkpt>
      <trkpt lat="59.9552281" lon="17.7144879">
        <ele>36.6675</ele>
        <time>2012-07-24T18:01:23Z</time>
      </trkpt>
      <trkpt lat="59.9551821" lon="17.7143954">
        <ele>36.1868</ele>
        <time>2012-07-24T18:01:26Z</time>
      </trkpt>
      <trkpt lat="59.9551417" lon="17.714232">
        <ele>35.2255</ele>
        <time>2012-07-24T18:01:31Z</time>
      </trkpt>
      <trkpt lat="59.9551283" lon="17.7141731">
        <ele>34.7449</ele>
        <time>2012-07-24T18:01:33Z</time>
      </trkpt>
      <trkpt lat="59.9550605" lon="17.7142179">
        <ele>32.8223</ele>
        <time>2012-07-24T18:01:39Z</time>
      </trkpt>
      <trkpt lat="59.9550568" lon="17.7143112">
        <ele>32.3416</ele>
        <time>2012-07-24T18:01:43Z</time>
      </trkpt>
      <trkpt lat="59.9550284" lon="17.7143608">
        <ele>31.8607</ele>
        <time>2012-07-24T18:01:46Z</time>
      </trkpt>
      <trkpt lat="59.9549518" lon="17.714462">
        <ele>32.8223</ele>
        <time>2012-07-24T18:01:53Z</time>
      </trkpt>
      <trkpt lat="59.9549402" lon="17.7144795">
        <ele>33.3029</ele>
        <time>2012-07-24T18:01:54Z</time>
      </trkpt>
      <trkpt lat="59.9548916" lon="17.714572">
        <ele>34.7449</ele>
        <time>2012-07-24T18:01:59Z</time>
      </trkpt>
      <trkpt lat="59.9548674" lon="17.7146153">
        <ele>35.2255</ele>
        <time>2012-07-24T18:02:01Z</time>
      </trkpt>
      <trkpt lat="59.954798" lon="17.7147399">
        <ele>37.6287</ele>
        <time>2012-07-24T18:02:07Z</time>
      </trkpt>
      <trkpt lat="59.9547834" lon="17.7147474">
        <ele>37.6287</ele>
        <time>2012-07-24T18:02:08Z</time>
      </trkpt>
      <trkpt lat="59.9547466" lon="17.714774">
        <ele>38.5901</ele>
        <time>2012-07-24T18:02:10Z</time>
      </trkpt>
      <trkpt lat="59.9547067" lon="17.7147912">
        <ele>40.0321</ele>
        <time>2012-07-24T18:02:14Z</time>
      </trkpt>
      <trkpt lat="59.9546073" lon="17.7148167">
        <ele>40.9934</ele>
        <time>2012-07-24T18:02:21Z</time>
      </trkpt>
      <trkpt lat="59.9545241" lon="17.7148291">
        <ele>40.0321</ele>
        <time>2012-07-24T18:02:26Z</time>
      </trkpt>
      <trkpt lat="59.9544336" lon="17.7148445">
        <ele>39.5513</ele>
        <time>2012-07-24T18:02:32Z</time>
      </trkpt>
      <trkpt lat="59.954296" lon="17.7148486">
        <ele>41.9547</ele>
        <time>2012-07-24T18:02:38Z</time>
      </trkpt>
      <trkpt lat="59.954212" lon="17.7148598">
        <ele>42.4354</ele>
        <time>2012-07-24T18:02:44Z</time>
      </trkpt>
      <trkpt lat="59.9541836" lon="17.7148598">
        <ele>43.3966</ele>
        <time>2012-07-24T18:02:46Z</time>
      </trkpt>
      <trkpt lat="59.9540782" lon="17.714893">
        <ele>43.3966</ele>
        <time>2012-07-24T18:02:53Z</time>
      </trkpt>
      <trkpt lat="59.9540618" lon="17.714895">
        <ele>43.3966</ele>
        <time>2012-07-24T18:02:54Z</time>
      </trkpt>
      <trkpt lat="59.9540204" lon="17.7149394">
        <ele>42.4354</ele>
        <time>2012-07-24T18:02:57Z</time>
      </trkpt>
      <trkpt lat="59.9539296" lon="17.7149364">
        <ele>42.916</ele>
        <time>2012-07-24T18:03:03Z</time>
      </trkpt>
      <trkpt lat="59.9539141" lon="17.7149416">
        <ele>42.4354</ele>
        <time>2012-07-24T18:03:04Z</time>
      </trkpt>
      <trkpt lat="59.9538162" lon="17.7149777">
        <ele>41.9547</ele>
        <time>2012-07-24T18:03:10Z</time>
      </trkpt>
      <trkpt lat="59.9537333" lon="17.7150289">
        <ele>40.0321</ele>
        <time>2012-07-24T18:03:15Z</time>
      </trkpt>
      <trkpt lat="59.9536713" lon="17.7150643">
        <ele>38.5901</ele>
        <time>2012-07-24T18:03:19Z</time>
      </trkpt>
      <trkpt lat="59.9536354" lon="17.7150828">
        <ele>40.0321</ele>
        <time>2012-07-24T18:03:21Z</time>
      </trkpt>
      <trkpt lat="59.9535601" lon="17.7151378">
        <ele>40.0321</ele>
        <time>2012-07-24T18:03:27Z</time>
      </trkpt>
      <trkpt lat="59.9535316" lon="17.715158">
        <ele>40.5128</ele>
        <time>2012-07-24T18:03:29Z</time>
      </trkpt>
      <trkpt lat="59.9534596" lon="17.7152556">
        <ele>40.9934</ele>
        <time>2012-07-24T18:03:35Z</time>
      </trkpt>
      <trkpt lat="59.9533831" lon="17.7153616">
        <ele>41.474</ele>
        <time>2012-07-24T18:03:41Z</time>
      </trkpt>
      <trkpt lat="59.9532983" lon="17.7155301">
        <ele>38.1094</ele>
        <time>2012-07-24T18:03:48Z</time>
      </trkpt>
      <trkpt lat="59.9532288" lon="17.7155979">
        <ele>36.1868</ele>
        <time>2012-07-24T18:03:53Z</time>
      </trkpt>
      <trkpt lat="59.9532008" lon="17.7156159">
        <ele>35.2255</ele>
        <time>2012-07-24T18:03:55Z</time>
      </trkpt>
      <trkpt lat="59.9531484" lon="17.715708">
        <ele>33.3029</ele>
        <time>2012-07-24T18:04:01Z</time>
      </trkpt>
      <trkpt lat="59.9531128" lon="17.7157808">
        <ele>35.2255</ele>
        <time>2012-07-24T18:04:04Z</time>
      </trkpt>
      <trkpt lat="59.9530769" lon="17.7158708">
        <ele>37.6287</ele>
        <time>2012-07-24T18:04:07Z</time>
      </trkpt>
      <trkpt lat="59.9530439" lon="17.7159755">
        <ele>34.7449</ele>
        <time>2012-07-24T18:04:11Z</time>
      </trkpt>
      <trkpt lat="59.9529898" lon="17.7161139">
        <ele>33.7834</ele>
        <time>2012-07-24T18:04:17Z</time>
      </trkpt>
      <trkpt lat="59.952945" lon="17.7162651">
        <ele>34.2642</ele>
        <time>2012-07-24T18:04:22Z</time>
      </trkpt>
      <trkpt lat="59.9529154" lon="17.7164635">
        <ele>31.3801</ele>
        <time>2012-07-24T18:04:28Z</time>
      </trkpt>
      <trkpt lat="59.9529009" lon="17.7165686">
        <ele>31.8607</ele>
        <time>2012-07-24T18:04:32Z</time>
      </trkpt>
      <trkpt lat="59.9528894" lon="17.7167588">
        <ele>34.7449</ele>
        <time>2012-07-24T18:04:38Z</time>
      </trkpt>
      <trkpt lat="59.9528843" lon="17.7169327">
        <ele>33.7834</ele>
        <time>2012-07-24T18:04:44Z</time>
      </trkpt>
      <trkpt lat="59.9528873" lon="17.7170261">
        <ele>32.8223</ele>
        <time>2012-07-24T18:04:47Z</time>
      </trkpt>
      <trkpt lat="59.9528345" lon="17.7172814">
        <ele>29.9381</ele>
        <time>2012-07-24T18:04:55Z</time>
      </trkpt>
      <trkpt lat="59.9527914" lon="17.7174679">
        <ele>28.9769</ele>
        <time>2012-07-24T18:05:02Z</time>
      </trkpt>
      <trkpt lat="59.952746" lon="17.7175906">
        <ele>29.9381</ele>
        <time>2012-07-24T18:05:07Z</time>
      </trkpt>
      <trkpt lat="59.9526823" lon="17.7177782">
        <ele>33.3029</ele>
        <time>2012-07-24T18:05:14Z</time>
      </trkpt>
      <trkpt lat="59.9526253" lon="17.7179611">
        <ele>34.7449</ele>
        <time>2012-07-24T18:05:21Z</time>
      </trkpt>
      <trkpt lat="59.9525853" lon="17.718094">
        <ele>36.1868</ele>
        <time>2012-07-24T18:05:26Z</time>
      </trkpt>
      <trkpt lat="59.9525682" lon="17.7181543">
        <ele>37.1481</ele>
        <time>2012-07-24T18:05:28Z</time>
      </trkpt>
      <trkpt lat="59.9525324" lon="17.718363">
        <ele>38.1094</ele>
        <time>2012-07-24T18:05:34Z</time>
      </trkpt>
      <trkpt lat="59.9525099" lon="17.7184615">
        <ele>38.5901</ele>
        <time>2012-07-24T18:05:37Z</time>
      </trkpt>
      <trkpt lat="59.9524651" lon="17.7186428">
        <ele>38.1094</ele>
        <time>2012-07-24T18:05:43Z</time>
      </trkpt>
      <trkpt lat="59.9524352" lon="17.7187971">
        <ele>38.5901</ele>
        <time>2012-07-24T18:05:49Z</time>
      </trkpt>
      <trkpt lat="59.9524151" lon="17.7189788">
        <ele>41.474</ele>
        <time>2012-07-24T18:05:55Z</time>
      </trkpt>
      <trkpt lat="59.9523907" lon="17.7191504">
        <ele>38.1094</ele>
        <time>2012-07-24T18:06:01Z</time>
      </trkpt>
      <trkpt lat="59.9523751" lon="17.7192706">
        <ele>37.1481</ele>
        <time>2012-07-24T18:06:05Z</time>
      </trkpt>
      <trkpt lat="59.9523616" lon="17.719429">
        <ele>36.6675</ele>
        <time>2012-07-24T18:06:10Z</time>
      </trkpt>
      <trkpt lat="59.9523809" lon="17.7195789">
        <ele>36.6675</ele>
        <time>2012-07-24T18:06:15Z</time>
      </trkpt>
      <trkpt lat="59.9524118" lon="17.7196627">
        <ele>38.5901</ele>
        <time>2012-07-24T18:06:18Z</time>
      </trkpt>
      <trkpt lat="59.9524597" lon="17.7199009">
        <ele>43.3966</ele>
        <time>2012-07-24T18:06:25Z</time>
      </trkpt>
      <trkpt lat="59.9525056" lon="17.7200661">
        <ele>44.8386</ele>
        <time>2012-07-24T18:06:31Z</time>
      </trkpt>
      <trkpt lat="59.9525229" lon="17.7203139">
        <ele>49.1646</ele>
        <time>2012-07-24T18:06:38Z</time>
      </trkpt>
      <trkpt lat="59.9524983" lon="17.720479">
        <ele>45.3192</ele>
        <time>2012-07-24T18:06:43Z</time>
      </trkpt>
      <trkpt lat="59.952494" lon="17.7206522">
        <ele>44.8386</ele>
        <time>2012-07-24T18:06:48Z</time>
      </trkpt>
      <trkpt lat="59.9524922" lon="17.7208296">
        <ele>43.8773</ele>
        <time>2012-07-24T18:06:53Z</time>
      </trkpt>
      <trkpt lat="59.952489" lon="17.7209031">
        <ele>43.3966</ele>
        <time>2012-07-24T18:06:55Z</time>
      </trkpt>
      <trkpt lat="59.9524994" lon="17.7210222">
        <ele>43.8773</ele>
        <time>2012-07-24T18:06:59Z</time>
      </trkpt>
      <trkpt lat="59.9524829" lon="17.7211995">
        <ele>43.8773</ele>
        <time>2012-07-24T18:07:04Z</time>
      </trkpt>
      <trkpt lat="59.9524821" lon="17.7214182">
        <ele>42.916</ele>
        <time>2012-07-24T18:07:11Z</time>
      </trkpt>
      <trkpt lat="59.9524718" lon="17.7216022">
        <ele>41.474</ele>
        <time>2012-07-24T18:07:16Z</time>
      </trkpt>
      <trkpt lat="59.9524856" lon="17.7216869">
        <ele>40.5128</ele>
        <time>2012-07-24T18:07:19Z</time>
      </trkpt>
      <trkpt lat="59.9524797" lon="17.7217829">
        <ele>39.5513</ele>
        <time>2012-07-24T18:07:22Z</time>
      </trkpt>
      <trkpt lat="59.9524856" lon="17.7218669">
        <ele>38.5901</ele>
        <time>2012-07-24T18:07:25Z</time>
      </trkpt>
      <trkpt lat="59.952494" lon="17.7219227">
        <ele>39.5513</ele>
        <time>2012-07-24T18:07:27Z</time>
      </trkpt>
      <trkpt lat="59.952541" lon="17.7220723">
        <ele>44.358</ele>
        <time>2012-07-24T18:07:32Z</time>
      </trkpt>
      <trkpt lat="59.9525427" lon="17.7221963">
        <ele>44.8386</ele>
        <time>2012-07-24T18:07:36Z</time>
      </trkpt>
      <trkpt lat="59.9524998" lon="17.7223455">
        <ele>42.4354</ele>
        <time>2012-07-24T18:07:41Z</time>
      </trkpt>
      <trkpt lat="59.952479" lon="17.7224734">
        <ele>39.0707</ele>
        <time>2012-07-24T18:07:45Z</time>
      </trkpt>
      <trkpt lat="59.9524619" lon="17.7226776">
        <ele>36.1868</ele>
        <time>2012-07-24T18:07:51Z</time>
      </trkpt>
      <trkpt lat="59.9524526" lon="17.7228925">
        <ele>33.3029</ele>
        <time>2012-07-24T18:07:58Z</time>
      </trkpt>
      <trkpt lat="59.9524502" lon="17.72292">
        <ele>33.3029</ele>
        <time>2012-07-24T18:07:59Z</time>
      </trkpt>
      <trkpt lat="59.9524715" lon="17.7231986">
        <ele>34.7449</ele>
        <time>2012-07-24T18:08:08Z</time>
      </trkpt>
      <trkpt lat="59.9525015" lon="17.7233233">
        <ele>36.1868</ele>
        <time>2012-07-24T18:08:12Z</time>
      </trkpt>
      <trkpt lat="59.9525564" lon="17.72347">
        <ele>39.5513</ele>
        <time>2012-07-24T18:08:17Z</time>
      </trkpt>
      <trkpt lat="59.9526142" lon="17.7236462">
        <ele>42.4354</ele>
        <time>2012-07-24T18:08:23Z</time>
      </trkpt>
      <trkpt lat="59.9526186" lon="17.7236794">
        <ele>42.916</ele>
        <time>2012-07-24T18:08:24Z</time>
      </trkpt>
      <trkpt lat="59.9526795" lon="17.7239383">
        <ele>48.2034</ele>
        <time>2012-07-24T18:08:32Z</time>
      </trkpt>
      <trkpt lat="59.9526672" lon="17.7241557">
        <ele>50.126</ele>
        <time>2012-07-24T18:08:38Z</time>
      </trkpt>
      <trkpt lat="59.9526367" lon="17.7242445">
        <ele>49.6453</ele>
        <time>2012-07-24T18:08:41Z</time>
      </trkpt>
      <trkpt lat="59.9525888" lon="17.7243704">
        <ele>48.2034</ele>
        <time>2012-07-24T18:08:46Z</time>
      </trkpt>
      <trkpt lat="59.9525819" lon="17.7243935">
        <ele>48.2034</ele>
        <time>2012-07-24T18:08:47Z</time>
      </trkpt>
      <trkpt lat="59.9525113" lon="17.7245843">
        <ele>47.7225</ele>
        <time>2012-07-24T18:08:55Z</time>
      </trkpt>
      <trkpt lat="59.9524584" lon="17.7246775">
        <ele>45.7999</ele>
        <time>2012-07-24T18:08:59Z</time>
      </trkpt>
      <trkpt lat="59.9523565" lon="17.7248713">
        <ele>44.358</ele>
        <time>2012-07-24T18:09:07Z</time>
      </trkpt>
      <trkpt lat="59.9523294" lon="17.7249162">
        <ele>44.358</ele>
        <time>2012-07-24T18:09:09Z</time>
      </trkpt>
      <trkpt lat="59.9522617" lon="17.7250477">
        <ele>43.8773</ele>
        <time>2012-07-24T18:09:15Z</time>
      </trkpt>
      <trkpt lat="59.9521897" lon="17.7252058">
        <ele>44.358</ele>
        <time>2012-07-24T18:09:22Z</time>
      </trkpt>
      <trkpt lat="59.9521181" lon="17.7253516">
        <ele>45.3192</ele>
        <time>2012-07-24T18:09:29Z</time>
      </trkpt>
      <trkpt lat="59.9520463" lon="17.7254882">
        <ele>45.7999</ele>
        <time>2012-07-24T18:09:34Z</time>
      </trkpt>
      <trkpt lat="59.9519328" lon="17.7257006">
        <ele>44.8386</ele>
        <time>2012-07-24T18:09:40Z</time>
      </trkpt>
      <trkpt lat="59.9518059" lon="17.7259006">
        <ele>44.358</ele>
        <time>2012-07-24T18:09:46Z</time>
      </trkpt>
      <trkpt lat="59.951708" lon="17.7260091">
        <ele>45.3192</ele>
        <time>2012-07-24T18:09:50Z</time>
      </trkpt>
      <trkpt lat="59.9516466" lon="17.7261057">
        <ele>44.8386</ele>
        <time>2012-07-24T18:09:53Z</time>
      </trkpt>
      <trkpt lat="59.9515396" lon="17.7263543">
        <ele>44.358</ele>
        <time>2012-07-24T18:09:59Z</time>
      </trkpt>
      <trkpt lat="59.9514588" lon="17.7266071">
        <ele>46.7612</ele>
        <time>2012-07-24T18:10:05Z</time>
      </trkpt>
      <trkpt lat="59.9514385" lon="17.7268496">
        <ele>50.6066</ele>
        <time>2012-07-24T18:10:11Z</time>
      </trkpt>
      <trkpt lat="59.9514458" lon="17.7269003">
        <ele>52.0486</ele>
        <time>2012-07-24T18:10:12Z</time>
      </trkpt>
      <trkpt lat="59.951483" lon="17.7271845">
        <ele>50.126</ele>
        <time>2012-07-24T18:10:18Z</time>
      </trkpt>
      <trkpt lat="59.9514935" lon="17.7272997">
        <ele>50.126</ele>
        <time>2012-07-24T18:10:20Z</time>
      </trkpt>
      <trkpt lat="59.9514845" lon="17.7276007">
        <ele>47.2418</ele>
        <time>2012-07-24T18:10:25Z</time>
      </trkpt>
      <trkpt lat="59.9514998" lon="17.7277983">
        <ele>45.3192</ele>
        <time>2012-07-24T18:10:29Z</time>
      </trkpt>
      <trkpt lat="59.9516007" lon="17.7279424">
        <ele>43.8773</ele>
        <time>2012-07-24T18:10:34Z</time>
      </trkpt>
      <trkpt lat="59.9516459" lon="17.7279658">
        <ele>43.3966</ele>
        <time>2012-07-24T18:10:36Z</time>
      </trkpt>
      <trkpt lat="59.9517753" lon="17.7279359">
        <ele>38.1094</ele>
        <time>2012-07-24T18:10:42Z</time>
      </trkpt>
      <trkpt lat="59.9518403" lon="17.7278866">
        <ele>39.0707</ele>
        <time>2012-07-24T18:10:45Z</time>
      </trkpt>
      <trkpt lat="59.9519182" lon="17.7277188">
        <ele>41.9547</ele>
        <time>2012-07-24T18:10:50Z</time>
      </trkpt>
      <trkpt lat="59.9519457" lon="17.7275487">
        <ele>40.5128</ele>
        <time>2012-07-24T18:10:54Z</time>
      </trkpt>
      <trkpt lat="59.9519962" lon="17.7274012">
        <ele>40.9934</ele>
        <time>2012-07-24T18:10:57Z</time>
      </trkpt>
      <trkpt lat="59.9520695" lon="17.7271106">
        <ele>42.916</ele>
        <time>2012-07-24T18:11:04Z</time>
      </trkpt>
      <trkpt lat="59.9520866" lon="17.7269946">
        <ele>44.358</ele>
        <time>2012-07-24T18:11:08Z</time>
      </trkpt>
      <trkpt lat="59.9521537" lon="17.72675">
        <ele>45.3192</ele>
        <time>2012-07-24T18:11:14Z</time>
      </trkpt>
      <trkpt lat="59.9521955" lon="17.7265839">
        <ele>47.2418</ele>
        <time>2012-07-24T18:11:18Z</time>
      </trkpt>
      <trkpt lat="59.9522757" lon="17.7263714">
        <ele>48.2034</ele>
        <time>2012-07-24T18:11:23Z</time>
      </trkpt>
      <trkpt lat="59.9523554" lon="17.7262171">
        <ele>48.2034</ele>
        <time>2012-07-24T18:11:27Z</time>
      </trkpt>
      <trkpt lat="59.9524006" lon="17.7261208">
        <ele>49.1646</ele>
        <time>2012-07-24T18:11:29Z</time>
      </trkpt>
      <trkpt lat="59.9525015" lon="17.7259157">
        <ele>50.126</ele>
        <time>2012-07-24T18:11:35Z</time>
      </trkpt>
      <trkpt lat="59.9526077" lon="17.7257798">
        <ele>48.2034</ele>
        <time>2012-07-24T18:11:40Z</time>
      </trkpt>
      <trkpt lat="59.9526941" lon="17.7255576">
        <ele>47.2418</ele>
        <time>2012-07-24T18:11:46Z</time>
      </trkpt>
      <trkpt lat="59.9527696" lon="17.7253716">
        <ele>47.7225</ele>
        <time>2012-07-24T18:11:51Z</time>
      </trkpt>
      <trkpt lat="59.952851" lon="17.7252371">
        <ele>46.7612</ele>
        <time>2012-07-24T18:11:55Z</time>
      </trkpt>
      <trkpt lat="59.9529247" lon="17.7250738">
        <ele>45.3192</ele>
        <time>2012-07-24T18:12:00Z</time>
      </trkpt>
      <trkpt lat="59.9529551" lon="17.7250058">
        <ele>45.3192</ele>
        <time>2012-07-24T18:12:02Z</time>
      </trkpt>
      <trkpt lat="59.9530711" lon="17.7248319">
        <ele>43.8773</ele>
        <time>2012-07-24T18:12:08Z</time>
      </trkpt>
      <trkpt lat="59.9531423" lon="17.7246672">
        <ele>44.358</ele>
        <time>2012-07-24T18:12:12Z</time>
      </trkpt>
      <trkpt lat="59.9532462" lon="17.7244818">
        <ele>43.3966</ele>
        <time>2012-07-24T18:12:18Z</time>
      </trkpt>
      <trkpt lat="59.9533097" lon="17.7243558">
        <ele>44.8386</ele>
        <time>2012-07-24T18:12:22Z</time>
      </trkpt>
      <trkpt lat="59.9533955" lon="17.7241916">
        <ele>45.3192</ele>
        <time>2012-07-24T18:12:27Z</time>
      </trkpt>
      <trkpt lat="59.9534696" lon="17.7240756">
        <ele>45.7999</ele>
        <time>2012-07-24T18:12:31Z</time>
      </trkpt>
      <trkpt lat="59.9535425" lon="17.7239159">
        <ele>44.8386</ele>
        <time>2012-07-24T18:12:36Z</time>
      </trkpt>
      <trkpt lat="59.9535884" lon="17.7237482">
        <ele>46.2806</ele>
        <time>2012-07-24T18:12:40Z</time>
      </trkpt>
      <trkpt lat="59.9536506" lon="17.7235167">
        <ele>46.7612</ele>
        <time>2012-07-24T18:12:45Z</time>
      </trkpt>
      <trkpt lat="59.9537478" lon="17.7234597">
        <ele>44.8386</ele>
        <time>2012-07-24T18:12:50Z</time>
      </trkpt>
      <trkpt lat="59.9538189" lon="17.7233583">
        <ele>44.358</ele>
        <time>2012-07-24T18:12:55Z</time>
      </trkpt>
      <trkpt lat="59.9538483" lon="17.7233167">
        <ele>44.358</ele>
        <time>2012-07-24T18:12:57Z</time>
      </trkpt>
      <trkpt lat="59.9539514" lon="17.7231656">
        <ele>43.8773</ele>
        <time>2012-07-24T18:13:02Z</time>
      </trkpt>
      <trkpt lat="59.9540612" lon="17.7231105">
        <ele>45.7999</ele>
        <time>2012-07-24T18:13:07Z</time>
      </trkpt>
      <trkpt lat="59.9541815" lon="17.7231462">
        <ele>44.8386</ele>
        <time>2012-07-24T18:13:12Z</time>
      </trkpt>
      <trkpt lat="59.9542808" lon="17.7232274">
        <ele>46.2806</ele>
        <time>2012-07-24T18:13:16Z</time>
      </trkpt>
      <trkpt lat="59.9543841" lon="17.7232867">
        <ele>45.7999</ele>
        <time>2012-07-24T18:13:21Z</time>
      </trkpt>
      <trkpt lat="59.9544937" lon="17.7233804">
        <ele>44.358</ele>
        <time>2012-07-24T18:13:26Z</time>
      </trkpt>
      <trkpt lat="59.9546187" lon="17.7234732">
        <ele>46.7612</ele>
        <time>2012-07-24T18:13:31Z</time>
      </trkpt>
      <trkpt lat="59.9547678" lon="17.7236046">
        <ele>55.4131</ele>
        <time>2012-07-24T18:13:36Z</time>
      </trkpt>
      <trkpt lat="59.9548845" lon="17.7236669">
        <ele>54.4518</ele>
        <time>2012-07-24T18:13:41Z</time>
      </trkpt>
      <trkpt lat="59.9549875" lon="17.7236374">
        <ele>48.2034</ele>
        <time>2012-07-24T18:13:46Z</time>
      </trkpt>
      <trkpt lat="59.9550045" lon="17.7236337">
        <ele>47.2418</ele>
        <time>2012-07-24T18:13:47Z</time>
      </trkpt>
      <trkpt lat="59.9550823" lon="17.7235627">
        <ele>44.8386</ele>
        <time>2012-07-24T18:13:51Z</time>
      </trkpt>
      <trkpt lat="59.9551258" lon="17.7235452">
        <ele>43.3966</ele>
        <time>2012-07-24T18:13:53Z</time>
      </trkpt>
      <trkpt lat="59.9552127" lon="17.7234586">
        <ele>40.9934</ele>
        <time>2012-07-24T18:13:58Z</time>
      </trkpt>
      <trkpt lat="59.9552423" lon="17.7234431">
        <ele>40.5128</ele>
        <time>2012-07-24T18:13:59Z</time>
      </trkpt>
      <trkpt lat="59.9553012" lon="17.7234085">
        <ele>40.0321</ele>
        <time>2012-07-24T18:14:01Z</time>
      </trkpt>
      <trkpt lat="59.9554291" lon="17.7234312">
        <ele>34.7449</ele>
        <time>2012-07-24T18:14:07Z</time>
      </trkpt>
      <trkpt lat="59.9555257" lon="17.723483">
        <ele>33.3029</ele>
        <time>2012-07-24T18:14:11Z</time>
      </trkpt>
      <trkpt lat="59.9556153" lon="17.7236035">
        <ele>32.3416</ele>
        <time>2012-07-24T18:14:16Z</time>
      </trkpt>
      <trkpt lat="59.9556912" lon="17.723661">
        <ele>28.4962</ele>
        <time>2012-07-24T18:14:20Z</time>
      </trkpt>
      <trkpt lat="59.9557454" lon="17.723662">
        <ele>25.1317</ele>
        <time>2012-07-24T18:14:23Z</time>
      </trkpt>
      <trkpt lat="59.955873" lon="17.7235258">
        <ele>31.3801</ele>
        <time>2012-07-24T18:14:28Z</time>
      </trkpt>
      <trkpt lat="59.9559479" lon="17.7233141">
        <ele>32.3416</ele>
        <time>2012-07-24T18:14:34Z</time>
      </trkpt>
      <trkpt lat="59.9559711" lon="17.723113">
        <ele>32.8223</ele>
        <time>2012-07-24T18:14:39Z</time>
      </trkpt>
      <trkpt lat="59.955995" lon="17.7229202">
        <ele>33.7834</ele>
        <time>2012-07-24T18:14:43Z</time>
      </trkpt>
      <trkpt lat="59.9559842" lon="17.7226929">
        <ele>35.2255</ele>
        <time>2012-07-24T18:14:48Z</time>
      </trkpt>
      <trkpt lat="59.9559447" lon="17.722423">
        <ele>38.5901</ele>
        <time>2012-07-24T18:14:54Z</time>
      </trkpt>
      <trkpt lat="59.9558949" lon="17.7222242">
        <ele>39.0707</ele>
        <time>2012-07-24T18:14:58Z</time>
      </trkpt>
      <trkpt lat="59.9558824" lon="17.7221725">
        <ele>39.5513</ele>
        <time>2012-07-24T18:14:59Z</time>
      </trkpt>
      <trkpt lat="59.9558743" lon="17.7219265">
        <ele>40.0321</ele>
        <time>2012-07-24T18:15:04Z</time>
      </trkpt>
      <trkpt lat="59.955913" lon="17.7217497">
        <ele>40.0321</ele>
        <time>2012-07-24T18:15:08Z</time>
      </trkpt>
      <trkpt lat="59.9559378" lon="17.7216088">
        <ele>40.5128</ele>
        <time>2012-07-24T18:15:11Z</time>
      </trkpt>
      <trkpt lat="59.9559384" lon="17.721369">
        <ele>40.9934</ele>
        <time>2012-07-24T18:15:16Z</time>
      </trkpt>
      <trkpt lat="59.9558349" lon="17.7212945">
        <ele>41.9547</ele>
        <time>2012-07-24T18:15:21Z</time>
      </trkpt>
      <trkpt lat="59.9557083" lon="17.7213093">
        <ele>44.8386</ele>
        <time>2012-07-24T18:15:26Z</time>
      </trkpt>
      <trkpt lat="59.9555871" lon="17.7214023">
        <ele>48.2034</ele>
        <time>2012-07-24T18:15:33Z</time>
      </trkpt>
      <trkpt lat="59.9555692" lon="17.7214125">
        <ele>48.684</ele>
        <time>2012-07-24T18:15:34Z</time>
      </trkpt>
      <trkpt lat="59.9554764" lon="17.7214585">
        <ele>51.5679</ele>
        <time>2012-07-24T18:15:39Z</time>
      </trkpt>
      <trkpt lat="59.9553443" lon="17.7214304">
        <ele>57.3358</ele>
        <time>2012-07-24T18:15:44Z</time>
      </trkpt>
      <trkpt lat="59.9552025" lon="17.7213897">
        <ele>58.7777</ele>
        <time>2012-07-24T18:15:50Z</time>
      </trkpt>
      <trkpt lat="59.9551361" lon="17.7213346">
        <ele>58.7777</ele>
        <time>2012-07-24T18:15:54Z</time>
      </trkpt>
      <trkpt lat="59.9550157" lon="17.7213607">
        <ele>61.181</ele>
        <time>2012-07-24T18:16:00Z</time>
      </trkpt>
      <trkpt lat="59.9549009" lon="17.7213466">
        <ele>59.7391</ele>
        <time>2012-07-24T18:16:05Z</time>
      </trkpt>
      <trkpt lat="59.9548124" lon="17.7212338">
        <ele>57.8165</ele>
        <time>2012-07-24T18:16:09Z</time>
      </trkpt>
      <trkpt lat="59.9547439" lon="17.7210704">
        <ele>56.3745</ele>
        <time>2012-07-24T18:16:13Z</time>
      </trkpt>
      <trkpt lat="59.9547383" lon="17.7208751">
        <ele>54.9324</ele>
        <time>2012-07-24T18:16:17Z</time>
      </trkpt>
      <trkpt lat="59.954776" lon="17.7206898">
        <ele>53.4905</ele>
        <time>2012-07-24T18:16:21Z</time>
      </trkpt>
      <trkpt lat="59.9548579" lon="17.7205655">
        <ele>51.5679</ele>
        <time>2012-07-24T18:16:25Z</time>
      </trkpt>
      <trkpt lat="59.9549952" lon="17.7204525">
        <ele>50.126</ele>
        <time>2012-07-24T18:16:32Z</time>
      </trkpt>
      <trkpt lat="59.9550858" lon="17.7203721">
        <ele>48.684</ele>
        <time>2012-07-24T18:16:36Z</time>
      </trkpt>
      <trkpt lat="59.955174" lon="17.7203024">
        <ele>47.7225</ele>
        <time>2012-07-24T18:16:40Z</time>
      </trkpt>
      <trkpt lat="59.9551936" lon="17.7202848">
        <ele>47.7225</ele>
        <time>2012-07-24T18:16:41Z</time>
      </trkpt>
      <trkpt lat="59.9552704" lon="17.7200808">
        <ele>50.6066</ele>
        <time>2012-07-24T18:16:47Z</time>
      </trkpt>
      <trkpt lat="59.9553588" lon="17.719989">
        <ele>52.0486</ele>
        <time>2012-07-24T18:16:51Z</time>
      </trkpt>
      <trkpt lat="59.9554832" lon="17.7198861">
        <ele>51.5679</ele>
        <time>2012-07-24T18:16:57Z</time>
      </trkpt>
      <trkpt lat="59.9555966" lon="17.7198001">
        <ele>52.0486</ele>
        <time>2012-07-24T18:17:02Z</time>
      </trkpt>
      <trkpt lat="59.95567" lon="17.7196715">
        <ele>53.4905</ele>
        <time>2012-07-24T18:17:06Z</time>
      </trkpt>
      <trkpt lat="59.9557798" lon="17.7195561">
        <ele>56.3745</ele>
        <time>2012-07-24T18:17:11Z</time>
      </trkpt>
      <trkpt lat="59.9558967" lon="17.7194328">
        <ele>57.3358</ele>
        <time>2012-07-24T18:17:17Z</time>
      </trkpt>
      <trkpt lat="59.955981" lon="17.7193336">
        <ele>57.8165</ele>
        <time>2012-07-24T18:17:21Z</time>
      </trkpt>
      <trkpt lat="59.9560296" lon="17.719269">
        <ele>57.8165</ele>
        <time>2012-07-24T18:17:23Z</time>
      </trkpt>
      <trkpt lat="59.9561339" lon="17.7190815">
        <ele>56.3745</ele>
        <time>2012-07-24T18:17:29Z</time>
      </trkpt>
      <trkpt lat="59.9561722" lon="17.7189141">
        <ele>56.8551</ele>
        <time>2012-07-24T18:17:33Z</time>
      </trkpt>
      <trkpt lat="59.9561991" lon="17.7187578">
        <ele>55.4131</ele>
        <time>2012-07-24T18:17:37Z</time>
      </trkpt>
      <trkpt lat="59.9561654" lon="17.718484">
        <ele>53.4905</ele>
        <time>2012-07-24T18:17:43Z</time>
      </trkpt>
      <trkpt lat="59.9561096" lon="17.7183294">
        <ele>51.5679</ele>
        <time>2012-07-24T18:17:47Z</time>
      </trkpt>
      <trkpt lat="59.9560121" lon="17.7180787">
        <ele>48.684</ele>
        <time>2012-07-24T18:17:53Z</time>
      </trkpt>
      <trkpt lat="59.9559877" lon="17.7179878">
        <ele>47.2418</ele>
        <time>2012-07-24T18:17:55Z</time>
      </trkpt>
      <trkpt lat="59.9558769" lon="17.7177953">
        <ele>48.2034</ele>
        <time>2012-07-24T18:18:01Z</time>
      </trkpt>
      <trkpt lat="59.9558625" lon="17.717761">
        <ele>48.684</ele>
        <time>2012-07-24T18:18:02Z</time>
      </trkpt>
      <trkpt lat="59.9557526" lon="17.717546">
        <ele>48.2034</ele>
        <time>2012-07-24T18:18:08Z</time>
      </trkpt>
      <trkpt lat="59.955708" lon="17.7174374">
        <ele>48.2034</ele>
        <time>2012-07-24T18:18:11Z</time>
      </trkpt>
      <trkpt lat="59.9556059" lon="17.7171989">
        <ele>48.2034</ele>
        <time>2012-07-24T18:18:17Z</time>
      </trkpt>
      <trkpt lat="59.9555728" lon="17.716996">
        <ele>47.7225</ele>
        <time>2012-07-24T18:18:22Z</time>
      </trkpt>
      <trkpt lat="59.9555359" lon="17.7167681">
        <ele>47.7225</ele>
        <time>2012-07-24T18:18:28Z</time>
      </trkpt>
      <trkpt lat="59.9555301" lon="17.7167292">
        <ele>47.7225</ele>
        <time>2012-07-24T18:18:29Z</time>
      </trkpt>
      <trkpt lat="59.9555211" lon="17.7163503">
        <ele>46.7612</ele>
        <time>2012-07-24T18:18:37Z</time>
      </trkpt>
      <trkpt lat="59.9555189" lon="17.716095">
        <ele>45.3192</ele>
        <time>2012-07-24T18:18:42Z</time>
      </trkpt>
      <trkpt lat="59.9555033" lon="17.7158848">
        <ele>43.8773</ele>
        <time>2012-07-24T18:18:47Z</time>
      </trkpt>
      <trkpt lat="59.9554716" lon="17.7156579">
        <ele>42.4354</ele>
        <time>2012-07-24T18:18:52Z</time>
      </trkpt>
      <trkpt lat="59.9554631" lon="17.7154267">
        <ele>42.4354</ele>
        <time>2012-07-24T18:18:57Z</time>
      </trkpt>
      <trkpt lat="59.9554392" lon="17.7151994">
        <ele>41.9547</ele>
        <time>2012-07-24T18:19:02Z</time>
      </trkpt>
      <trkpt lat="59.9554318" lon="17.7151476">
        <ele>41.9547</ele>
        <time>2012-07-24T18:19:03Z</time>
      </trkpt>
      <trkpt lat="59.9553712" lon="17.714841">
        <ele>42.916</ele>
        <time>2012-07-24T18:19:10Z</time>
      </trkpt>
      <trkpt lat="59.9553293" lon="17.7146199">
        <ele>42.916</ele>
        <time>2012-07-24T18:19:15Z</time>
      </trkpt>
      <trkpt lat="59.9552817" lon="17.7144132">
        <ele>42.4354</ele>
        <time>2012-07-24T18:19:20Z</time>
      </trkpt>
      <trkpt lat="59.9552281" lon="17.7141867">
        <ele>42.4354</ele>
        <time>2012-07-24T18:19:25Z</time>
      </trkpt>
      <trkpt lat="59.9552101" lon="17.714153">
        <ele>42.4354</ele>
        <time>2012-07-24T18:19:26Z</time>
      </trkpt>
      <trkpt lat="59.9551359" lon="17.7142592">
        <ele>42.4354</ele>
        <time>2012-07-24T18:19:31Z</time>
      </trkpt>
      <trkpt lat="59.9550593" lon="17.7144205">
        <ele>40.9934</ele>
        <time>2012-07-24T18:19:36Z</time>
      </trkpt>
      <trkpt lat="59.955004" lon="17.7145443">
        <ele>40.5128</ele>
        <time>2012-07-24T18:19:40Z</time>
      </trkpt>
      <trkpt lat="59.9549267" lon="17.7146783">
        <ele>40.9934</ele>
        <time>2012-07-24T18:19:44Z</time>
      </trkpt>
      <trkpt lat="59.9548976" lon="17.7147043">
        <ele>41.474</ele>
        <time>2012-07-24T18:19:45Z</time>
      </trkpt>
      <trkpt lat="59.9547538" lon="17.7148037">
        <ele>42.4354</ele>
        <time>2012-07-24T18:19:50Z</time>
      </trkpt>
      <trkpt lat="59.9546409" lon="17.7148378">
        <ele>43.3966</ele>
        <time>2012-07-24T18:19:54Z</time>
      </trkpt>
      <trkpt lat="59.9544876" lon="17.7148436">
        <ele>45.3192</ele>
        <time>2012-07-24T18:20:00Z</time>
      </trkpt>
      <trkpt lat="59.9543643" lon="17.7148378">
        <ele>45.3192</ele>
        <time>2012-07-24T18:20:05Z</time>
      </trkpt>
      <trkpt lat="59.9542403" lon="17.7148219">
        <ele>46.7612</ele>
        <time>2012-07-24T18:20:10Z</time>
      </trkpt>
      <trkpt lat="59.9541317" lon="17.714827">
        <ele>47.2418</ele>
        <time>2012-07-24T18:20:15Z</time>
      </trkpt>
      <trkpt lat="59.9540478" lon="17.7148469">
        <ele>47.2418</ele>
        <time>2012-07-24T18:20:19Z</time>
      </trkpt>
      <trkpt lat="59.9539411" lon="17.7148719">
        <ele>47.2418</ele>
        <time>2012-07-24T18:20:24Z</time>
      </trkpt>
      <trkpt lat="59.9538742" lon="17.7148976">
        <ele>47.7225</ele>
        <time>2012-07-24T18:20:27Z</time>
      </trkpt>
      <trkpt lat="59.9537945" lon="17.7149306">
        <ele>47.7225</ele>
        <time>2012-07-24T18:20:31Z</time>
      </trkpt>
      <trkpt lat="59.95368" lon="17.7150708">
        <ele>49.6453</ele>
        <time>2012-07-24T18:20:36Z</time>
      </trkpt>
      <trkpt lat="59.9535904" lon="17.7151765">
        <ele>51.0872</ele>
        <time>2012-07-24T18:20:41Z</time>
      </trkpt>
      <trkpt lat="59.9535028" lon="17.7153265">
        <ele>52.5292</ele>
        <time>2012-07-24T18:20:46Z</time>
      </trkpt>
      <trkpt lat="59.9534379" lon="17.7154564">
        <ele>55.4131</ele>
        <time>2012-07-24T18:20:50Z</time>
      </trkpt>
      <trkpt lat="59.9533643" lon="17.7155927">
        <ele>61.181</ele>
        <time>2012-07-24T18:20:55Z</time>
      </trkpt>
      <trkpt lat="59.9532831" lon="17.7157299">
        <ele>62.6229</ele>
        <time>2012-07-24T18:21:00Z</time>
      </trkpt>
      <trkpt lat="59.9531851" lon="17.7158824">
        <ele>62.1423</ele>
        <time>2012-07-24T18:21:05Z</time>
      </trkpt>
      <trkpt lat="59.9531231" lon="17.7160226">
        <ele>62.1423</ele>
        <time>2012-07-24T18:21:09Z</time>
      </trkpt>
      <trkpt lat="59.9530464" lon="17.7163707">
        <ele>63.1036</ele>
        <time>2012-07-24T18:21:17Z</time>
      </trkpt>
      <trkpt lat="59.9530038" lon="17.7165988">
        <ele>62.6229</ele>
        <time>2012-07-24T18:21:22Z</time>
      </trkpt>
      <trkpt lat="59.9529662" lon="17.7168557">
        <ele>58.7777</ele>
        <time>2012-07-24T18:21:28Z</time>
      </trkpt>
      <trkpt lat="59.9529517" lon="17.7170902">
        <ele>58.7777</ele>
        <time>2012-07-24T18:21:33Z</time>
      </trkpt>
      <trkpt lat="59.9529282" lon="17.7172689">
        <ele>58.7777</ele>
        <time>2012-07-24T18:21:37Z</time>
      </trkpt>
      <trkpt lat="59.9528868" lon="17.7175057">
        <ele>62.6229</ele>
        <time>2012-07-24T18:21:42Z</time>
      </trkpt>
      <trkpt lat="59.9528364" lon="17.7177708">
        <ele>68.8716</ele>
        <time>2012-07-24T18:21:48Z</time>
      </trkpt>
      <trkpt lat="59.9527496" lon="17.7180962">
        <ele>81.3688</ele>
        <time>2012-07-24T18:21:56Z</time>
      </trkpt>
      <trkpt lat="59.9527277" lon="17.7183029">
        <ele>83.772</ele>
        <time>2012-07-24T18:22:01Z</time>
      </trkpt>
      <trkpt lat="59.95266" lon="17.7184936">
        <ele>79.446</ele>
        <time>2012-07-24T18:22:06Z</time>
      </trkpt>
      <trkpt lat="59.9525914" lon="17.71867">
        <ele>70.3135</ele>
        <time>2012-07-24T18:22:11Z</time>
      </trkpt>
      <trkpt lat="59.952588" lon="17.7187622">
        <ele>71.7555</ele>
        <time>2012-07-24T18:22:13Z</time>
      </trkpt>
      <trkpt lat="59.9525512" lon="17.718941">
        <ele>75.1202</ele>
        <time>2012-07-24T18:22:17Z</time>
      </trkpt>
      <trkpt lat="59.9525118" lon="17.7191564">
        <ele>77.0428</ele>
        <time>2012-07-24T18:22:23Z</time>
      </trkpt>
      <trkpt lat="59.9525031" lon="17.7191918">
        <ele>78.004</ele>
        <time>2012-07-24T18:22:24Z</time>
      </trkpt>
      <trkpt lat="59.9524759" lon="17.7194363">
        <ele>79.9266</ele>
        <time>2012-07-24T18:22:29Z</time>
      </trkpt>
      <trkpt lat="59.9524792" lon="17.7196032">
        <ele>78.4847</ele>
        <time>2012-07-24T18:22:33Z</time>
      </trkpt>
      <trkpt lat="59.9524807" lon="17.7197492">
        <ele>70.7942</ele>
        <time>2012-07-24T18:22:38Z</time>
      </trkpt>
      <trkpt lat="59.9524844" lon="17.7197801">
        <ele>69.3523</ele>
        <time>2012-07-24T18:22:39Z</time>
      </trkpt>
      <trkpt lat="59.95249" lon="17.7198973">
        <ele>64.0651</ele>
        <time>2012-07-24T18:22:42Z</time>
      </trkpt>
      <trkpt lat="59.9525295" lon="17.720109">
        <ele>58.7777</ele>
        <time>2012-07-24T18:22:47Z</time>
      </trkpt>
      <trkpt lat="59.9525139" lon="17.7202483">
        <ele>53.9712</ele>
        <time>2012-07-24T18:22:50Z</time>
      </trkpt>
      <trkpt lat="59.9524749" lon="17.7205693">
        <ele>49.6453</ele>
        <time>2012-07-24T18:22:57Z</time>
      </trkpt>
      <trkpt lat="59.9524619" lon="17.7207811">
        <ele>44.8386</ele>
        <time>2012-07-24T18:23:02Z</time>
      </trkpt>
      <trkpt lat="59.9524569" lon="17.7210054">
        <ele>42.4354</ele>
        <time>2012-07-24T18:23:07Z</time>
      </trkpt>
      <trkpt lat="59.9524304" lon="17.7212279">
        <ele>38.5901</ele>
        <time>2012-07-24T18:23:12Z</time>
      </trkpt>
      <trkpt lat="59.9524363" lon="17.7214437">
        <ele>38.5901</ele>
        <time>2012-07-24T18:23:17Z</time>
      </trkpt>
      <trkpt lat="59.9524419" lon="17.7214846">
        <ele>38.1094</ele>
        <time>2012-07-24T18:23:18Z</time>
      </trkpt>
      <trkpt lat="59.9524762" lon="17.7216968">
        <ele>37.6287</ele>
        <time>2012-07-24T18:23:23Z</time>
      </trkpt>
      <trkpt lat="59.9524823" lon="17.7217388">
        <ele>38.1094</ele>
        <time>2012-07-24T18:23:24Z</time>
      </trkpt>
      <trkpt lat="59.9525309" lon="17.7219982">
        <ele>40.5128</ele>
        <time>2012-07-24T18:23:30Z</time>
      </trkpt>
      <trkpt lat="59.9525189" lon="17.7223506">
        <ele>50.6066</ele>
        <time>2012-07-24T18:23:37Z</time>
      </trkpt>
      <trkpt lat="59.9524995" lon="17.722577">
        <ele>55.8938</ele>
        <time>2012-07-24T18:23:42Z</time>
      </trkpt>
      <trkpt lat="59.9524985" lon="17.7228671">
        <ele>59.2584</ele>
        <time>2012-07-24T18:23:48Z</time>
      </trkpt>
      <trkpt lat="59.9525108" lon="17.723123">
        <ele>56.3745</ele>
        <time>2012-07-24T18:23:54Z</time>
      </trkpt>
      <trkpt lat="59.9525443" lon="17.7232882">
        <ele>52.5292</ele>
        <time>2012-07-24T18:23:58Z</time>
      </trkpt>
      <trkpt lat="59.9525855" lon="17.7234779">
        <ele>49.1646</ele>
        <time>2012-07-24T18:24:03Z</time>
      </trkpt>
      <trkpt lat="59.952649" lon="17.7236724">
        <ele>48.684</ele>
        <time>2012-07-24T18:24:08Z</time>
      </trkpt>
      <trkpt lat="59.9527114" lon="17.7239388">
        <ele>50.6066</ele>
        <time>2012-07-24T18:24:14Z</time>
      </trkpt>
      <trkpt lat="59.9526844" lon="17.7241881">
        <ele>53.0098</ele>
        <time>2012-07-24T18:24:19Z</time>
      </trkpt>
      <trkpt lat="59.9525902" lon="17.7244391">
        <ele>53.0098</ele>
        <time>2012-07-24T18:24:25Z</time>
      </trkpt>
      <trkpt lat="59.9525155" lon="17.7246865">
        <ele>54.9324</ele>
        <time>2012-07-24T18:24:31Z</time>
      </trkpt>
      <trkpt lat="59.952407" lon="17.7248698">
        <ele>54.4518</ele>
        <time>2012-07-24T18:24:36Z</time>
      </trkpt>
      <trkpt lat="59.9523171" lon="17.7250386">
        <ele>53.4905</ele>
        <time>2012-07-24T18:24:41Z</time>
      </trkpt>
      <trkpt lat="59.9522296" lon="17.7252088">
        <ele>53.0098</ele>
        <time>2012-07-24T18:24:46Z</time>
      </trkpt>
      <trkpt lat="59.9521576" lon="17.725356">
        <ele>52.0486</ele>
        <time>2012-07-24T18:24:50Z</time>
      </trkpt>
      <trkpt lat="59.9520803" lon="17.7255197">
        <ele>55.4131</ele>
        <time>2012-07-24T18:24:55Z</time>
      </trkpt>
      <trkpt lat="59.9520027" lon="17.7256851">
        <ele>54.4518</ele>
        <time>2012-07-24T18:25:00Z</time>
      </trkpt>
      <trkpt lat="59.9519201" lon="17.725861">
        <ele>54.9324</ele>
        <time>2012-07-24T18:25:05Z</time>
      </trkpt>
      <trkpt lat="59.9518235" lon="17.725984">
        <ele>52.5292</ele>
        <time>2012-07-24T18:25:10Z</time>
      </trkpt>
      <trkpt lat="59.9516951" lon="17.7261492">
        <ele>50.126</ele>
        <time>2012-07-24T18:25:17Z</time>
      </trkpt>
      <trkpt lat="59.9516109" lon="17.7263486">
        <ele>51.5679</ele>
        <time>2012-07-24T18:25:23Z</time>
      </trkpt>
      <trkpt lat="59.9515355" lon="17.7265834">
        <ele>53.0098</ele>
        <time>2012-07-24T18:25:29Z</time>
      </trkpt>
      <trkpt lat="59.9514901" lon="17.7267128">
        <ele>51.5679</ele>
        <time>2012-07-24T18:25:33Z</time>
      </trkpt>
      <trkpt lat="59.9514815" lon="17.7269485">
        <ele>51.0872</ele>
        <time>2012-07-24T18:25:39Z</time>
      </trkpt>
      <trkpt lat="59.9514795" lon="17.7269831">
        <ele>50.6066</ele>
        <time>2012-07-24T18:25:40Z</time>
      </trkpt>
      <trkpt lat="59.9515053" lon="17.7272277">
        <ele>47.7225</ele>
        <time>2012-07-24T18:25:46Z</time>
      </trkpt>
      <trkpt lat="59.9515031" lon="17.7272729">
        <ele>48.2034</ele>
        <time>2012-07-24T18:25:47Z</time>
      </trkpt>
      <trkpt lat="59.9514992" lon="17.7275402">
        <ele>47.2418</ele>
        <time>2012-07-24T18:25:53Z</time>
      </trkpt>
      <trkpt lat="59.9515462" lon="17.7277701">
        <ele>44.358</ele>
        <time>2012-07-24T18:25:59Z</time>
      </trkpt>
      <trkpt lat="59.9516259" lon="17.7278834">
        <ele>42.916</ele>
        <time>2012-07-24T18:26:04Z</time>
      </trkpt>
      <trkpt lat="59.9516437" lon="17.727898">
        <ele>41.9547</ele>
        <time>2012-07-24T18:26:05Z</time>
      </trkpt>
      <trkpt lat="59.9517716" lon="17.7279156">
        <ele>37.1481</ele>
        <time>2012-07-24T18:26:12Z</time>
      </trkpt>
      <trkpt lat="59.9518611" lon="17.7278175">
        <ele>34.7449</ele>
        <time>2012-07-24T18:26:18Z</time>
      </trkpt>
      <trkpt lat="59.9519125" lon="17.727585">
        <ele>33.7834</ele>
        <time>2012-07-24T18:26:24Z</time>
      </trkpt>
      <trkpt lat="59.9519451" lon="17.7273798">
        <ele>36.1868</ele>
        <time>2012-07-24T18:26:28Z</time>
      </trkpt>
      <trkpt lat="59.9519535" lon="17.7273339">
        <ele>37.1481</ele>
        <time>2012-07-24T18:26:29Z</time>
      </trkpt>
      <trkpt lat="59.9520136" lon="17.7271149">
        <ele>39.5513</ele>
        <time>2012-07-24T18:26:34Z</time>
      </trkpt>
      <trkpt lat="59.9520245" lon="17.727075">
        <ele>40.0321</ele>
        <time>2012-07-24T18:26:35Z</time>
      </trkpt>
      <trkpt lat="59.9520814" lon="17.7268605">
        <ele>40.9934</ele>
        <time>2012-07-24T18:26:40Z</time>
      </trkpt>
      <trkpt lat="59.9521375" lon="17.7267123">
        <ele>43.3966</ele>
        <time>2012-07-24T18:26:44Z</time>
      </trkpt>
      <trkpt lat="59.9521762" lon="17.7266423">
        <ele>44.358</ele>
        <time>2012-07-24T18:26:46Z</time>
      </trkpt>
      <trkpt lat="59.9522045" lon="17.726474">
        <ele>45.3192</ele>
        <time>2012-07-24T18:26:50Z</time>
      </trkpt>
      <trkpt lat="59.9522081" lon="17.7264375">
        <ele>45.7999</ele>
        <time>2012-07-24T18:26:51Z</time>
      </trkpt>
      <trkpt lat="59.9522887" lon="17.7262357">
        <ele>46.2806</ele>
        <time>2012-07-24T18:26:57Z</time>
      </trkpt>
      <trkpt lat="59.9523813" lon="17.7260595">
        <ele>45.7999</ele>
        <time>2012-07-24T18:27:03Z</time>
      </trkpt>
      <trkpt lat="59.9524452" lon="17.7259482">
        <ele>43.8773</ele>
        <time>2012-07-24T18:27:07Z</time>
      </trkpt>
      <trkpt lat="59.9525565" lon="17.7257598">
        <ele>46.7612</ele>
        <time>2012-07-24T18:27:12Z</time>
      </trkpt>
      <trkpt lat="59.9526554" lon="17.7255902">
        <ele>48.2034</ele>
        <time>2012-07-24T18:27:17Z</time>
      </trkpt>
      <trkpt lat="59.9527482" lon="17.7254217">
        <ele>48.684</ele>
        <time>2012-07-24T18:27:22Z</time>
      </trkpt>
      <trkpt lat="59.9527705" lon="17.7253898">
        <ele>48.684</ele>
        <time>2012-07-24T18:27:23Z</time>
      </trkpt>
      <trkpt lat="59.9528424" lon="17.7252421">
        <ele>49.1646</ele>
        <time>2012-07-24T18:27:27Z</time>
      </trkpt>
      <trkpt lat="59.9529373" lon="17.7251173">
        <ele>50.126</ele>
        <time>2012-07-24T18:27:32Z</time>
      </trkpt>
      <trkpt lat="59.9530129" lon="17.7250003">
        <ele>51.5679</ele>
        <time>2012-07-24T18:27:36Z</time>
      </trkpt>
      <trkpt lat="59.9530624" lon="17.7249045">
        <ele>52.5292</ele>
        <time>2012-07-24T18:27:39Z</time>
      </trkpt>
      <trkpt lat="59.9531304" lon="17.7247468">
        <ele>54.4518</ele>
        <time>2012-07-24T18:27:43Z</time>
      </trkpt>
      <trkpt lat="59.9532214" lon="17.7245688">
        <ele>58.2971</ele>
        <time>2012-07-24T18:27:48Z</time>
      </trkpt>
      <trkpt lat="59.9532579" lon="17.7243943">
        <ele>59.7391</ele>
        <time>2012-07-24T18:27:53Z</time>
      </trkpt>
      <trkpt lat="59.9533382" lon="17.7242331">
        <ele>62.1423</ele>
        <time>2012-07-24T18:27:58Z</time>
      </trkpt>
      <trkpt lat="59.9534228" lon="17.7240298">
        <ele>64.0651</ele>
        <time>2012-07-24T18:28:04Z</time>
      </trkpt>
      <trkpt lat="59.9535028" lon="17.723856">
        <ele>64.0651</ele>
        <time>2012-07-24T18:28:11Z</time>
      </trkpt>
      <trkpt lat="59.9535519" lon="17.7237444">
        <ele>63.5844</ele>
        <time>2012-07-24T18:28:15Z</time>
      </trkpt>
      <trkpt lat="59.9535879" lon="17.7236477">
        <ele>63.5844</ele>
        <time>2012-07-24T18:28:18Z</time>
      </trkpt>
      <trkpt lat="59.9536675" lon="17.7234514">
        <ele>61.6617</ele>
        <time>2012-07-24T18:28:24Z</time>
      </trkpt>
      <trkpt lat="59.9537622" lon="17.7233668">
        <ele>60.2197</ele>
        <time>2012-07-24T18:28:29Z</time>
      </trkpt>
      <trkpt lat="59.9538823" lon="17.7232702">
        <ele>61.6617</ele>
        <time>2012-07-24T18:28:34Z</time>
      </trkpt>
      <trkpt lat="59.9539669" lon="17.7231375">
        <ele>60.7003</ele>
        <time>2012-07-24T18:28:39Z</time>
      </trkpt>
      <trkpt lat="59.9541027" lon="17.7230586">
        <ele>63.1036</ele>
        <time>2012-07-24T18:28:44Z</time>
      </trkpt>
      <trkpt lat="59.9542503" lon="17.7230972">
        <ele>61.6617</ele>
        <time>2012-07-24T18:28:50Z</time>
      </trkpt>
      <trkpt lat="59.9543418" lon="17.7231738">
        <ele>59.7391</ele>
        <time>2012-07-24T18:28:54Z</time>
      </trkpt>
      <trkpt lat="59.9544747" lon="17.7232337">
        <ele>54.9324</ele>
        <time>2012-07-24T18:29:00Z</time>
      </trkpt>
      <trkpt lat="59.954586" lon="17.7233096">
        <ele>48.684</ele>
        <time>2012-07-24T18:29:06Z</time>
      </trkpt>
      <trkpt lat="59.9546023" lon="17.723354">
        <ele>46.7612</ele>
        <time>2012-07-24T18:29:08Z</time>
      </trkpt>
      <trkpt lat="59.9547818" lon="17.7234649">
        <ele>50.126</ele>
        <time>2012-07-24T18:29:16Z</time>
      </trkpt>
      <trkpt lat="59.9549004" lon="17.7235995">
        <ele>49.6453</ele>
        <time>2012-07-24T18:29:21Z</time>
      </trkpt>
      <trkpt lat="59.9549792" lon="17.7236151">
        <ele>48.2034</ele>
        <time>2012-07-24T18:29:26Z</time>
      </trkpt>
      <trkpt lat="59.9550657" lon="17.7235597">
        <ele>46.2806</ele>
        <time>2012-07-24T18:29:31Z</time>
      </trkpt>
      <trkpt lat="59.9551729" lon="17.7234469">
        <ele>49.1646</ele>
        <time>2012-07-24T18:29:37Z</time>
      </trkpt>
      <trkpt lat="59.955295" lon="17.72336">
        <ele>51.5679</ele>
        <time>2012-07-24T18:29:43Z</time>
      </trkpt>
      <trkpt lat="59.9553878" lon="17.7234059">
        <ele>51.5679</ele>
        <time>2012-07-24T18:29:47Z</time>
      </trkpt>
      <trkpt lat="59.9555267" lon="17.7234535">
        <ele>50.126</ele>
        <time>2012-07-24T18:29:53Z</time>
      </trkpt>
      <trkpt lat="59.9556733" lon="17.7235312">
        <ele>55.8938</ele>
        <time>2012-07-24T18:29:58Z</time>
      </trkpt>
      <trkpt lat="59.9557964" lon="17.7236249">
        <ele>57.8165</ele>
        <time>2012-07-24T18:30:03Z</time>
      </trkpt>
      <trkpt lat="59.9558896" lon="17.7236952">
        <ele>58.2971</ele>
        <time>2012-07-24T18:30:08Z</time>
      </trkpt>
      <trkpt lat="59.9559406" lon="17.7236484">
        <ele>57.8165</ele>
        <time>2012-07-24T18:30:12Z</time>
      </trkpt>
      <trkpt lat="59.9559965" lon="17.723453">
        <ele>55.4131</ele>
        <time>2012-07-24T18:30:18Z</time>
      </trkpt>
      <trkpt lat="59.9560536" lon="17.7232536">
        <ele>54.9324</ele>
        <time>2012-07-24T18:30:23Z</time>
      </trkpt>
      <trkpt lat="59.9560829" lon="17.7230401">
        <ele>55.4131</ele>
        <time>2012-07-24T18:30:28Z</time>
      </trkpt>
      <trkpt lat="59.9560473" lon="17.7228137">
        <ele>57.3358</ele>
        <time>2012-07-24T18:30:32Z</time>
      </trkpt>
      <trkpt lat="59.9560069" lon="17.722653">
        <ele>59.7391</ele>
        <time>2012-07-24T18:30:36Z</time>
      </trkpt>
      <trkpt lat="59.9559473" lon="17.722366">
        <ele>59.7391</ele>
        <time>2012-07-24T18:30:42Z</time>
      </trkpt>
      <trkpt lat="59.9559055" lon="17.7221655">
        <ele>59.2584</ele>
        <time>2012-07-24T18:30:47Z</time>
      </trkpt>
      <trkpt lat="59.9558835" lon="17.721973">
        <ele>57.8165</ele>
        <time>2012-07-24T18:30:51Z</time>
      </trkpt>
      <trkpt lat="59.9558898" lon="17.7217358">
        <ele>55.4131</ele>
        <time>2012-07-24T18:30:56Z</time>
      </trkpt>
      <trkpt lat="59.9559208" lon="17.7214613">
        <ele>52.5292</ele>
        <time>2012-07-24T18:31:03Z</time>
      </trkpt>
      <trkpt lat="59.9559083" lon="17.7214224">
        <ele>52.0486</ele>
        <time>2012-07-24T18:31:04Z</time>
      </trkpt>
      <trkpt lat="59.9558338" lon="17.7212569">
        <ele>50.126</ele>
        <time>2012-07-24T18:31:08Z</time>
      </trkpt>
      <trkpt lat="59.9557299" lon="17.7212329">
        <ele>49.1646</ele>
        <time>2012-07-24T18:31:14Z</time>
      </trkpt>
      <trkpt lat="59.9556552" lon="17.7213079">
        <ele>47.7225</ele>
        <time>2012-07-24T18:31:19Z</time>
      </trkpt>
      <trkpt lat="59.9555975" lon="17.7213667">
        <ele>50.126</ele>
        <time>2012-07-24T18:31:23Z</time>
      </trkpt>
      <trkpt lat="59.9554961" lon="17.7214773">
        <ele>56.8551</ele>
        <time>2012-07-24T18:31:30Z</time>
      </trkpt>
      <trkpt lat="59.9554749" lon="17.7214783">
        <ele>56.8551</ele>
        <time>2012-07-24T18:31:31Z</time>
      </trkpt>
      <trkpt lat="59.9553178" lon="17.72143">
        <ele>56.8551</ele>
        <time>2012-07-24T18:31:38Z</time>
      </trkpt>
      <trkpt lat="59.9552084" lon="17.7214068">
        <ele>61.6617</ele>
        <time>2012-07-24T18:31:43Z</time>
      </trkpt>
      <trkpt lat="59.9551434" lon="17.7214053">
        <ele>62.1423</ele>
        <time>2012-07-24T18:31:46Z</time>
      </trkpt>
      <trkpt lat="59.9550481" lon="17.7214384">
        <ele>62.6229</ele>
        <time>2012-07-24T18:31:52Z</time>
      </trkpt>
      <trkpt lat="59.9549912" lon="17.7214052">
        <ele>61.181</ele>
        <time>2012-07-24T18:31:55Z</time>
      </trkpt>
      <trkpt lat="59.9548823" lon="17.7212888">
        <ele>56.8551</ele>
        <time>2012-07-24T18:32:00Z</time>
      </trkpt>
      <trkpt lat="59.9547481" lon="17.7209811">
        <ele>54.9324</ele>
        <time>2012-07-24T18:32:06Z</time>
      </trkpt>
      <trkpt lat="59.9547375" lon="17.720825">
        <ele>56.8551</ele>
        <time>2012-07-24T18:32:08Z</time>
      </trkpt>
      <trkpt lat="59.9547543" lon="17.7206545">
        <ele>57.3358</ele>
        <time>2012-07-24T18:32:12Z</time>
      </trkpt>
      <trkpt lat="59.954816" lon="17.7204985">
        <ele>59.2584</ele>
        <time>2012-07-24T18:32:17Z</time>
      </trkpt>
      <trkpt lat="59.9549287" lon="17.7202818">
        <ele>61.181</ele>
        <time>2012-07-24T18:32:23Z</time>
      </trkpt>
      <trkpt lat="59.9550093" lon="17.7201771">
        <ele>61.181</ele>
        <time>2012-07-24T18:32:28Z</time>
      </trkpt>
      <trkpt lat="59.9551169" lon="17.7200886">
        <ele>62.1423</ele>
        <time>2012-07-24T18:32:33Z</time>
      </trkpt>
      <trkpt lat="59.9552064" lon="17.7200237">
        <ele>62.6229</ele>
        <time>2012-07-24T18:32:37Z</time>
      </trkpt>
      <trkpt lat="59.9553169" lon="17.7199309">
        <ele>65.9877</ele>
        <time>2012-07-24T18:32:42Z</time>
      </trkpt>
      <trkpt lat="59.9554071" lon="17.7198195">
        <ele>67.9103</ele>
        <time>2012-07-24T18:32:47Z</time>
      </trkpt>
      <trkpt lat="59.9554759" lon="17.7197352">
        <ele>68.3909</ele>
        <time>2012-07-24T18:32:51Z</time>
      </trkpt>
      <trkpt lat="59.9555681" lon="17.7197215">
        <ele>65.9877</ele>
        <time>2012-07-24T18:32:56Z</time>
      </trkpt>
      <trkpt lat="59.9556027" lon="17.7197073">
        <ele>65.0264</ele>
        <time>2012-07-24T18:32:58Z</time>
      </trkpt>
      <trkpt lat="59.9556754" lon="17.7196212">
        <ele>63.1036</ele>
        <time>2012-07-24T18:33:02Z</time>
      </trkpt>
      <trkpt lat="59.9557902" lon="17.7195237">
        <ele>61.181</ele>
        <time>2012-07-24T18:33:08Z</time>
      </trkpt>
      <trkpt lat="59.9559297" lon="17.7193949">
        <ele>57.3358</ele>
        <time>2012-07-24T18:33:15Z</time>
      </trkpt>
      <trkpt lat="59.9559478" lon="17.7193791">
        <ele>57.3358</ele>
        <time>2012-07-24T18:33:16Z</time>
      </trkpt>
      <trkpt lat="59.9560368" lon="17.7192269">
        <ele>58.2971</ele>
        <time>2012-07-24T18:33:21Z</time>
      </trkpt>
      <trkpt lat="59.9561044" lon="17.7191175">
        <ele>57.8165</ele>
        <time>2012-07-24T18:33:25Z</time>
      </trkpt>
      <trkpt lat="59.9561768" lon="17.7189251">
        <ele>59.7391</ele>
        <time>2012-07-24T18:33:30Z</time>
      </trkpt>
      <trkpt lat="59.956202" lon="17.7188402">
        <ele>59.2584</ele>
        <time>2012-07-24T18:33:32Z</time>
      </trkpt>
      <trkpt lat="59.9561895" lon="17.7186608">
        <ele>58.7777</ele>
        <time>2012-07-24T18:33:36Z</time>
      </trkpt>
      <trkpt lat="59.9561631" lon="17.7185515">
        <ele>56.8551</ele>
        <time>2012-07-24T18:33:39Z</time>
      </trkpt>
      <trkpt lat="59.9561308" lon="17.7183848">
        <ele>54.9324</ele>
        <time>2012-07-24T18:33:44Z</time>
      </trkpt>
      <trkpt lat="59.9561017" lon="17.7183179">
        <ele>53.9712</ele>
        <time>2012-07-24T18:33:46Z</time>
      </trkpt>
      <trkpt lat="59.9559788" lon="17.7180699">
        <ele>53.9712</ele>
        <time>2012-07-24T18:33:52Z</time>
      </trkpt>
      <trkpt lat="59.9558586" lon="17.717876">
        <ele>54.4518</ele>
        <time>2012-07-24T18:33:58Z</time>
      </trkpt>
      <trkpt lat="59.9558323" lon="17.7177857">
        <ele>54.4518</ele>
        <time>2012-07-24T18:34:01Z</time>
      </trkpt>
      <trkpt lat="59.9557873" lon="17.7175562">
        <ele>57.3358</ele>
        <time>2012-07-24T18:34:08Z</time>
      </trkpt>
      <trkpt lat="59.9557328" lon="17.7173933">
        <ele>58.7777</ele>
        <time>2012-07-24T18:34:13Z</time>
      </trkpt>
      <trkpt lat="59.9556946" lon="17.7171938">
        <ele>58.2971</ele>
        <time>2012-07-24T18:34:18Z</time>
      </trkpt>
      <trkpt lat="59.9556226" lon="17.7169896">
        <ele>59.2584</ele>
        <time>2012-07-24T18:34:23Z</time>
      </trkpt>
      <trkpt lat="59.9555758" lon="17.7167945">
        <ele>54.9324</ele>
        <time>2012-07-24T18:34:28Z</time>
      </trkpt>
      <trkpt lat="59.9555599" lon="17.716512">
        <ele>53.4905</ele>
        <time>2012-07-24T18:34:35Z</time>
      </trkpt>
      <trkpt lat="59.9555283" lon="17.7162283">
        <ele>49.6453</ele>
        <time>2012-07-24T18:34:41Z</time>
      </trkpt>
      <trkpt lat="59.9554888" lon="17.716016">
        <ele>47.2418</ele>
        <time>2012-07-24T18:34:46Z</time>
      </trkpt>
      <trkpt lat="59.9554681" lon="17.7159137">
        <ele>46.7612</ele>
        <time>2012-07-24T18:34:48Z</time>
      </trkpt>
      <trkpt lat="59.9554493" lon="17.7156549">
        <ele>43.8773</ele>
        <time>2012-07-24T18:34:54Z</time>
      </trkpt>
      <trkpt lat="59.9554465" lon="17.7155486">
        <ele>43.8773</ele>
        <time>2012-07-24T18:34:56Z</time>
      </trkpt>
      <trkpt lat="59.9554341" lon="17.7154319">
        <ele>44.8386</ele>
        <time>2012-07-24T18:34:58Z</time>
      </trkpt>
      <trkpt lat="59.9554299" lon="17.7152486">
        <ele>45.3192</ele>
        <time>2012-07-24T18:35:02Z</time>
      </trkpt>
      <trkpt lat="59.9553986" lon="17.7151002">
        <ele>44.8386</ele>
        <time>2012-07-24T18:35:06Z</time>
      </trkpt>
      <trkpt lat="59.9553371" lon="17.7148674">
        <ele>43.8773</ele>
        <time>2012-07-24T18:35:12Z</time>
      </trkpt>
      <trkpt lat="59.9553178" lon="17.7147891">
        <ele>43.3966</ele>
        <time>2012-07-24T18:35:14Z</time>
      </trkpt>
      <trkpt lat="59.9552737" lon="17.7145888">
        <ele>41.474</ele>
        <time>2012-07-24T18:35:19Z</time>
      </trkpt>
      <trkpt lat="59.9552236" lon="17.7143796">
        <ele>40.5128</ele>
        <time>2012-07-24T18:35:24Z</time>
      </trkpt>
      <trkpt lat="59.9551849" lon="17.7142509">
        <ele>40.5128</ele>
        <time>2012-07-24T18:35:27Z</time>
      </trkpt>
      <trkpt lat="59.9551445" lon="17.7141457">
        <ele>39.5513</ele>
        <time>2012-07-24T18:35:31Z</time>
      </trkpt>
      <trkpt lat="59.9551145" lon="17.7142364">
        <ele>37.6287</ele>
        <time>2012-07-24T18:35:35Z</time>
      </trkpt>
      <trkpt lat="59.9550837" lon="17.7143392">
        <ele>35.2255</ele>
        <time>2012-07-24T18:35:38Z</time>
      </trkpt>
      <trkpt lat="59.9550054" lon="17.7145024">
        <ele>32.3416</ele>
        <time>2012-07-24T18:35:44Z</time>
      </trkpt>
      <trkpt lat="59.9549197" lon="17.7146763">
        <ele>32.3416</ele>
        <time>2012-07-24T18:35:50Z</time>
      </trkpt>
      <trkpt lat="59.9548963" lon="17.7146948">
        <ele>33.3029</ele>
        <time>2012-07-24T18:35:51Z</time>
      </trkpt>
      <trkpt lat="59.9548163" lon="17.7147468">
        <ele>36.1868</ele>
        <time>2012-07-24T18:35:54Z</time>
      </trkpt>
      <trkpt lat="59.9547212" lon="17.7147721">
        <ele>40.0321</ele>
        <time>2012-07-24T18:35:58Z</time>
      </trkpt>
      <trkpt lat="59.9546098" lon="17.7148158">
        <ele>41.474</ele>
        <time>2012-07-24T18:36:03Z</time>
      </trkpt>
      <trkpt lat="59.9545897" lon="17.7148192">
        <ele>41.9547</ele>
        <time>2012-07-24T18:36:04Z</time>
      </trkpt>
      <trkpt lat="59.9544658" lon="17.7148419">
        <ele>43.3966</ele>
        <time>2012-07-24T18:36:09Z</time>
      </trkpt>
      <trkpt lat="59.9543486" lon="17.7148781">
        <ele>45.3192</ele>
        <time>2012-07-24T18:36:14Z</time>
      </trkpt>
      <trkpt lat="59.9542911" lon="17.7148835">
        <ele>46.2806</ele>
        <time>2012-07-24T18:36:17Z</time>
      </trkpt>
      <trkpt lat="59.9541586" lon="17.7149276">
        <ele>45.3192</ele>
        <time>2012-07-24T18:36:23Z</time>
      </trkpt>
      <trkpt lat="59.9540406" lon="17.714913">
        <ele>46.7612</ele>
        <time>2012-07-24T18:36:28Z</time>
      </trkpt>
      <trkpt lat="59.9539752" lon="17.7147398">
        <ele>47.7225</ele>
        <time>2012-07-24T18:36:34Z</time>
      </trkpt>
      <trkpt lat="59.9539327" lon="17.714593">
        <ele>48.2034</ele>
        <time>2012-07-24T18:36:38Z</time>
      </trkpt>
      <trkpt lat="59.9538917" lon="17.7143509">
        <ele>48.684</ele>
        <time>2012-07-24T18:36:43Z</time>
      </trkpt>
      <trkpt lat="59.9538977" lon="17.7142034">
        <ele>47.7225</ele>
        <time>2012-07-24T18:36:47Z</time>
      </trkpt>
      <trkpt lat="59.9538888" lon="17.7141532">
        <ele>47.2418</ele>
        <time>2012-07-24T18:36:48Z</time>
      </trkpt>
      <trkpt lat="59.9538716" lon="17.7138838">
        <ele>46.7612</ele>
        <time>2012-07-24T18:36:53Z</time>
      </trkpt>
      <trkpt lat="59.9538583" lon="17.7137787">
        <ele>46.7612</ele>
        <time>2012-07-24T18:36:55Z</time>
      </trkpt>
      <trkpt lat="59.953837" lon="17.7136332">
        <ele>46.7612</ele>
        <time>2012-07-24T18:36:59Z</time>
      </trkpt>
      <trkpt lat="59.9538129" lon="17.7134139">
        <ele>46.2806</ele>
        <time>2012-07-24T18:37:04Z</time>
      </trkpt>
      <trkpt lat="59.9537743" lon="17.7132931">
        <ele>45.3192</ele>
        <time>2012-07-24T18:37:06Z</time>
      </trkpt>
      <trkpt lat="59.9536732" lon="17.7130994">
        <ele>44.358</ele>
        <time>2012-07-24T18:37:12Z</time>
      </trkpt>
      <trkpt lat="59.9536317" lon="17.7130787">
        <ele>43.8773</ele>
        <time>2012-07-24T18:37:14Z</time>
      </trkpt>
      <trkpt lat="59.9535195" lon="17.7131762">
        <ele>44.8386</ele>
        <time>2012-07-24T18:37:20Z</time>
      </trkpt>
      <trkpt lat="59.9533992" lon="17.7133874">
        <ele>45.7999</ele>
        <time>2012-07-24T18:37:27Z</time>
      </trkpt>
      <trkpt lat="59.9533478" lon="17.7134761">
        <ele>47.2418</ele>
        <time>2012-07-24T18:37:30Z</time>
      </trkpt>
      <trkpt lat="59.9532734" lon="17.7136279">
        <ele>47.7225</ele>
        <time>2012-07-24T18:37:35Z</time>
      </trkpt>
      <trkpt lat="59.9531695" lon="17.7138143">
        <ele>47.7225</ele>
        <time>2012-07-24T18:37:41Z</time>
      </trkpt>
      <trkpt lat="59.9530677" lon="17.7139261">
        <ele>46.7612</ele>
        <time>2012-07-24T18:37:46Z</time>
      </trkpt>
      <trkpt lat="59.9529512" lon="17.7139642">
        <ele>44.358</ele>
        <time>2012-07-24T18:37:51Z</time>
      </trkpt>
      <trkpt lat="59.9528481" lon="17.7138962">
        <ele>42.916</ele>
        <time>2012-07-24T18:37:56Z</time>
      </trkpt>
      <trkpt lat="59.9527485" lon="17.7137323">
        <ele>42.4354</ele>
        <time>2012-07-24T18:38:02Z</time>
      </trkpt>
      <trkpt lat="59.9526688" lon="17.71357">
        <ele>42.916</ele>
        <time>2012-07-24T18:38:07Z</time>
      </trkpt>
      <trkpt lat="59.9525925" lon="17.7133891">
        <ele>42.916</ele>
        <time>2012-07-24T18:38:12Z</time>
      </trkpt>
      <trkpt lat="59.952522" lon="17.7131984">
        <ele>43.3966</ele>
        <time>2012-07-24T18:38:17Z</time>
      </trkpt>
      <trkpt lat="59.9524378" lon="17.7129634">
        <ele>43.8773</ele>
        <time>2012-07-24T18:38:23Z</time>
      </trkpt>
      <trkpt lat="59.9523626" lon="17.7127109">
        <ele>44.358</ele>
        <time>2012-07-24T18:38:30Z</time>
      </trkpt>
      <trkpt lat="59.9523083" lon="17.7125063">
        <ele>44.358</ele>
        <time>2012-07-24T18:38:35Z</time>
      </trkpt>
      <trkpt lat="59.9522538" lon="17.7123142">
        <ele>43.8773</ele>
        <time>2012-07-24T18:38:40Z</time>
      </trkpt>
      <trkpt lat="59.9522891" lon="17.7120815">
        <ele>43.8773</ele>
        <time>2012-07-24T18:38:46Z</time>
      </trkpt>
      <trkpt lat="59.9523518" lon="17.7119526">
        <ele>45.3192</ele>
        <time>2012-07-24T18:38:50Z</time>
      </trkpt>
      <trkpt lat="59.9523875" lon="17.7118928">
        <ele>45.3192</ele>
        <time>2012-07-24T18:38:52Z</time>
      </trkpt>
      <trkpt lat="59.9524672" lon="17.7117677">
        <ele>46.2806</ele>
        <time>2012-07-24T18:38:56Z</time>
      </trkpt>
      <trkpt lat="59.9525511" lon="17.711618">
        <ele>46.7612</ele>
        <time>2012-07-24T18:39:01Z</time>
      </trkpt>
      <trkpt lat="59.9525854" lon="17.7115508">
        <ele>46.7612</ele>
        <time>2012-07-24T18:39:03Z</time>
      </trkpt>
      <trkpt lat="59.9526676" lon="17.7114393">
        <ele>46.7612</ele>
        <time>2012-07-24T18:39:07Z</time>
      </trkpt>
      <trkpt lat="59.9527243" lon="17.7113647">
        <ele>47.2418</ele>
        <time>2012-07-24T18:39:10Z</time>
      </trkpt>
      <trkpt lat="59.9527696" lon="17.7112677">
        <ele>47.7225</ele>
        <time>2012-07-24T18:39:13Z</time>
      </trkpt>
      <trkpt lat="59.952846" lon="17.7111419">
        <ele>47.7225</ele>
        <time>2012-07-24T18:39:17Z</time>
      </trkpt>
      <trkpt lat="59.9529561" lon="17.71091">
        <ele>48.2034</ele>
        <time>2012-07-24T18:39:24Z</time>
      </trkpt>
      <trkpt lat="59.9529796" lon="17.7108488">
        <ele>48.684</ele>
        <time>2012-07-24T18:39:26Z</time>
      </trkpt>
      <trkpt lat="59.9529476" lon="17.7106498">
        <ele>48.684</ele>
        <time>2012-07-24T18:39:31Z</time>
      </trkpt>
      <trkpt lat="59.9528626" lon="17.7104709">
        <ele>48.2034</ele>
        <time>2012-07-24T18:39:36Z</time>
      </trkpt>
      <trkpt lat="59.9527619" lon="17.7103279">
        <ele>47.2418</ele>
        <time>2012-07-24T18:39:41Z</time>
      </trkpt>
      <trkpt lat="59.9526445" lon="17.7101834">
        <ele>46.7612</ele>
        <time>2012-07-24T18:39:46Z</time>
      </trkpt>
      <trkpt lat="59.9525526" lon="17.710064">
        <ele>46.2806</ele>
        <time>2012-07-24T18:39:51Z</time>
      </trkpt>
      <trkpt lat="59.9524415" lon="17.7099008">
        <ele>47.7225</ele>
        <time>2012-07-24T18:39:57Z</time>
      </trkpt>
      <trkpt lat="59.9524267" lon="17.7098814">
        <ele>47.7225</ele>
        <time>2012-07-24T18:39:58Z</time>
      </trkpt>
      <trkpt lat="59.9523451" lon="17.7097224">
        <ele>46.7612</ele>
        <time>2012-07-24T18:40:03Z</time>
      </trkpt>
      <trkpt lat="59.9523109" lon="17.7094211">
        <ele>46.7612</ele>
        <time>2012-07-24T18:40:10Z</time>
      </trkpt>
      <trkpt lat="59.9523082" lon="17.7091953">
        <ele>46.7612</ele>
        <time>2012-07-24T18:40:14Z</time>
      </trkpt>
      <trkpt lat="59.9523198" lon="17.7091041">
        <ele>47.2418</ele>
        <time>2012-07-24T18:40:16Z</time>
      </trkpt>
      <trkpt lat="59.9523988" lon="17.708921">
        <ele>47.7225</ele>
        <time>2012-07-24T18:40:21Z</time>
      </trkpt>
      <trkpt lat="59.9524933" lon="17.7089485">
        <ele>46.7612</ele>
        <time>2012-07-24T18:40:25Z</time>
      </trkpt>
      <trkpt lat="59.9525774" lon="17.708943">
        <ele>45.7999</ele>
        <time>2012-07-24T18:40:29Z</time>
      </trkpt>
      <trkpt lat="59.9527145" lon="17.7088965">
        <ele>44.358</ele>
        <time>2012-07-24T18:40:35Z</time>
      </trkpt>
      <trkpt lat="59.9527993" lon="17.7088356">
        <ele>43.8773</ele>
        <time>2012-07-24T18:40:39Z</time>
      </trkpt>
      <trkpt lat="59.952874" lon="17.7086576">
        <ele>41.474</ele>
        <time>2012-07-24T18:40:44Z</time>
      </trkpt>
      <trkpt lat="59.9529214" lon="17.7084943">
        <ele>42.4354</ele>
        <time>2012-07-24T18:40:48Z</time>
      </trkpt>
      <trkpt lat="59.9529453" lon="17.7083663">
        <ele>43.3966</ele>
        <time>2012-07-24T18:40:51Z</time>
      </trkpt>
      <trkpt lat="59.9529875" lon="17.7081939">
        <ele>43.8773</ele>
        <time>2012-07-24T18:40:55Z</time>
      </trkpt>
      <trkpt lat="59.953006" lon="17.7081835">
        <ele>44.358</ele>
        <time>2012-07-24T18:40:56Z</time>
      </trkpt>
      <trkpt lat="59.9531153" lon="17.7082334">
        <ele>46.2806</ele>
        <time>2012-07-24T18:41:02Z</time>
      </trkpt>
      <trkpt lat="59.9532272" lon="17.7083727">
        <ele>43.8773</ele>
        <time>2012-07-24T18:41:08Z</time>
      </trkpt>
      <trkpt lat="59.9533158" lon="17.7085694">
        <ele>40.9934</ele>
        <time>2012-07-24T18:41:14Z</time>
      </trkpt>
      <trkpt lat="59.9534112" lon="17.7087063">
        <ele>40.5128</ele>
        <time>2012-07-24T18:41:19Z</time>
      </trkpt>
      <trkpt lat="59.9534861" lon="17.7088067">
        <ele>40.0321</ele>
        <time>2012-07-24T18:41:23Z</time>
      </trkpt>
      <trkpt lat="59.9536083" lon="17.7089248">
        <ele>39.5513</ele>
        <time>2012-07-24T18:41:29Z</time>
      </trkpt>
      <trkpt lat="59.9537192" lon="17.7089978">
        <ele>40.0321</ele>
        <time>2012-07-24T18:41:34Z</time>
      </trkpt>
      <trkpt lat="59.9538509" lon="17.7090653">
        <ele>41.474</ele>
        <time>2012-07-24T18:41:39Z</time>
      </trkpt>
      <trkpt lat="59.9539671" lon="17.7091691">
        <ele>43.3966</ele>
        <time>2012-07-24T18:41:44Z</time>
      </trkpt>
      <trkpt lat="59.9540809" lon="17.7093237">
        <ele>43.3966</ele>
        <time>2012-07-24T18:41:50Z</time>
      </trkpt>
      <trkpt lat="59.9541543" lon="17.7094316">
        <ele>42.4354</ele>
        <time>2012-07-24T18:41:54Z</time>
      </trkpt>
      <trkpt lat="59.9542408" lon="17.7095769">
        <ele>41.474</ele>
        <time>2012-07-24T18:41:59Z</time>
      </trkpt>
      <trkpt lat="59.9543273" lon="17.7097362">
        <ele>41.9547</ele>
        <time>2012-07-24T18:42:04Z</time>
      </trkpt>
      <trkpt lat="59.9543959" lon="17.7098286">
        <ele>40.9934</ele>
        <time>2012-07-24T18:42:08Z</time>
      </trkpt>
      <trkpt lat="59.9544859" lon="17.7099815">
        <ele>38.1094</ele>
        <time>2012-07-24T18:42:14Z</time>
      </trkpt>
      <trkpt lat="59.9545659" lon="17.7101283">
        <ele>36.1868</ele>
        <time>2012-07-24T18:42:20Z</time>
      </trkpt>
      <trkpt lat="59.9546507" lon="17.7103006">
        <ele>37.1481</ele>
        <time>2012-07-24T18:42:25Z</time>
      </trkpt>
      <trkpt lat="59.9547263" lon="17.7104737">
        <ele>36.6675</ele>
        <time>2012-07-24T18:42:31Z</time>
      </trkpt>
      <trkpt lat="59.9548263" lon="17.7106445">
        <ele>37.1481</ele>
        <time>2012-07-24T18:42:37Z</time>
      </trkpt>
      <trkpt lat="59.954913" lon="17.7108021">
        <ele>36.1868</ele>
        <time>2012-07-24T18:42:42Z</time>
      </trkpt>
      <trkpt lat="59.954982" lon="17.7109901">
        <ele>37.1481</ele>
        <time>2012-07-24T18:42:47Z</time>
      </trkpt>
      <trkpt lat="59.9550333" lon="17.7112832">
        <ele>37.1481</ele>
        <time>2012-07-24T18:42:54Z</time>
      </trkpt>
      <trkpt lat="59.955091" lon="17.7114648">
        <ele>34.7449</ele>
        <time>2012-07-24T18:42:59Z</time>
      </trkpt>
      <trkpt lat="59.9551604" lon="17.7116631">
        <ele>36.1868</ele>
        <time>2012-07-24T18:43:04Z</time>
      </trkpt>
      <trkpt lat="59.9551847" lon="17.7118967">
        <ele>36.6675</ele>
        <time>2012-07-24T18:43:09Z</time>
      </trkpt>
      <trkpt lat="59.9551583" lon="17.7121599">
        <ele>36.1868</ele>
        <time>2012-07-24T18:43:15Z</time>
      </trkpt>
      <trkpt lat="59.9552032" lon="17.7124064">
        <ele>39.0707</ele>
        <time>2012-07-24T18:43:20Z</time>
      </trkpt>
      <trkpt lat="59.9552641" lon="17.7126683">
        <ele>41.474</ele>
        <time>2012-07-24T18:43:26Z</time>
      </trkpt>
      <trkpt lat="59.9553278" lon="17.7129311">
        <ele>44.358</ele>
        <time>2012-07-24T18:43:32Z</time>
      </trkpt>
      <trkpt lat="59.9554164" lon="17.7133015">
        <ele>46.2806</ele>
        <time>2012-07-24T18:43:41Z</time>
      </trkpt>
      <trkpt lat="59.9554394" lon="17.7135744">
        <ele>46.2806</ele>
        <time>2012-07-24T18:43:47Z</time>
      </trkpt>
      <trkpt lat="59.9553933" lon="17.7137366">
        <ele>45.3192</ele>
        <time>2012-07-24T18:43:51Z</time>
      </trkpt>
      <trkpt lat="59.9553464" lon="17.7138366">
        <ele>44.358</ele>
        <time>2012-07-24T18:43:54Z</time>
      </trkpt>
      <trkpt lat="59.9553469" lon="17.7139234">
        <ele>44.8386</ele>
        <time>2012-07-24T18:43:56Z</time>
      </trkpt>
    </trkseg>
  </trk>
</gpx>